Time,TemperatureF,DewpointF,PressureIn,WindDirection,WindDirectionDegrees,WindSpeedMPH,WindSpeedGustMPH,Humidity,HourlyPrecipIn,Conditions,Clouds,dailyrainin,SolarRadiationWatts/m^2,SoftwareType,DateUTC
2013-06-23 00:01:00,70.0,63.0,30.20,South,187,1.0,3.0,79,0.00,,,0.00,0.000000,,2013-06-23 04:01:00,
2013-06-23 00:11:00,70.0,63.0,30.20,South,187,1.0,3.0,79,0.00,,,0.00,0.000000,,2013-06-23 04:11:00,
2013-06-23 00:21:00,70.0,63.0,30.20,South,187,1.0,3.0,79,0.00,,,0.00,0.000000,,2013-06-23 04:21:00,
2013-06-23 00:31:00,69.0,63.0,30.20,SSW,195,1.0,3.0,80,0.00,,,0.00,0.000000,,2013-06-23 04:31:00,
2013-06-23 00:42:00,69.0,63.0,30.20,SSW,195,1.0,3.0,80,0.00,,,0.00,0.000000,,2013-06-23 04:42:00,
2013-06-23 00:52:00,69.0,63.0,30.20,SSW,195,1.0,3.0,80,0.00,,,0.00,0.000000,,2013-06-23 04:52:00,
2013-06-23 01:01:00,69.0,63.0,30.20,SSW,195,1.0,3.0,80,0.00,,,0.00,0.000000,,2013-06-23 05:01:00,
2013-06-23 01:11:00,69.0,63.0,30.20,SSW,209,2.0,3.0,80,0.00,,,0.00,0.000000,,2013-06-23 05:11:00,
2013-06-23 01:22:00,69.0,63.0,30.20,SSW,209,2.0,3.0,80,0.00,,,0.00,0.000000,,2013-06-23 05:22:00,
2013-06-23 01:32:00,69.0,63.0,30.22,WSW,251,0.0,0.0,81,0.00,,,0.00,0.000000,,2013-06-23 05:32:00,
2013-06-23 01:41:00,66.0,61.0,30.22,SSW,204,0.0,1.0,84,0.00,,,0.00,0.000000,,2013-06-23 05:41:00,
2013-06-23 01:51:00,67.0,63.0,30.22,SW,229,0.0,0.0,87,0.00,,,0.00,0.000000,,2013-06-23 05:51:00,
2013-06-23 02:01:00,68.0,63.0,30.21,SSE,167,0.0,0.0,85,0.00,,,0.00,0.000000,,2013-06-23 06:01:00,
2013-06-23 02:02:00,68.0,64.0,30.22,WSW,245,1.0,1.0,87,0.00,,,0.00,0.000000,,2013-06-23 06:02:00,
2013-06-23 02:12:00,68.0,63.0,30.22,SSE,163,0.0,0.0,85,0.00,,,0.00,0.000000,,2013-06-23 06:12:00,
2013-06-23 02:22:00,68.0,63.0,30.21,SSE,167,0.0,0.0,85,0.00,,,0.00,0.000000,,2013-06-23 06:22:00,
2013-06-23 02:33:00,68.0,63.0,30.21,SSE,167,0.0,0.0,85,0.00,,,0.00,0.000000,,2013-06-23 06:33:00,
2013-06-23 02:43:00,68.0,63.0,30.21,SSE,167,0.0,0.0,85,0.00,,,0.00,0.000000,,2013-06-23 06:43:00,
2013-06-23 02:52:00,68.0,63.0,30.21,SSE,167,0.0,0.0,85,0.00,,,0.00,0.000000,,2013-06-23 06:52:00,
2013-06-23 03:12:00,66.0,63.0,30.19,North,0,0.0,0.0,89,0.00,,,0.00,0.000000,,2013-06-23 07:12:00,
2013-06-23 03:34:00,66.0,63.0,30.19,SE,125,0.0,1.0,89,0.00,,,0.00,0.000000,,2013-06-23 07:34:00,
2013-06-23 03:43:00,66.0,63.0,30.19,SE,125,0.0,1.0,89,0.00,,,0.00,0.000000,,2013-06-23 07:43:00,
2013-06-23 03:53:00,66.0,63.0,30.19,NE,46,0.0,0.0,90,0.00,,,0.00,0.000000,,2013-06-23 07:53:00,
2013-06-23 04:02:00,66.0,63.0,30.19,NE,46,0.0,0.0,90,0.00,,,0.00,0.000000,,2013-06-23 08:02:00,
2013-06-23 04:12:00,64.0,61.0,30.19,SSW,198,0.0,0.0,89,0.00,,,0.00,0.000000,,2013-06-23 08:12:00,
2013-06-23 04:22:00,64.0,61.0,30.19,SSW,198,0.0,0.0,89,0.00,,,0.00,0.000000,,2013-06-23 08:22:00,
2013-06-23 04:34:00,62.0,59.0,30.18,SSE,166,0.0,0.0,90,0.00,,,0.00,0.000000,,2013-06-23 08:34:00,
2013-06-23 04:43:00,62.0,59.0,30.18,SSE,166,0.0,0.0,90,0.00,,,0.00,0.000000,,2013-06-23 08:43:00,
2013-06-23 04:53:00,62.0,59.0,30.18,SSE,166,0.0,0.0,90,0.00,,,0.00,0.000000,,2013-06-23 08:53:00,
2013-06-23 05:02:00,64.0,61.0,30.19,NE,45,0.0,0.0,90,0.00,,,0.00,0.000000,,2013-06-23 09:02:00,
2013-06-23 05:12:00,64.0,61.0,30.19,NE,51,0.0,0.0,91,0.00,,,0.00,0.000000,,2013-06-23 09:12:00,
2013-06-23 05:22:00,64.0,61.0,30.19,NE,51,0.0,0.0,91,0.00,,,0.00,0.000000,,2013-06-23 09:22:00,
2013-06-23 05:34:00,64.0,61.0,30.19,NE,51,0.0,0.0,91,0.00,,,0.00,0.000000,,2013-06-23 09:34:00,
2013-06-23 05:43:00,63.0,60.0,30.19,North,0,0.0,0.0,90,0.00,,,0.00,0.000000,,2013-06-23 09:43:00,
2013-06-23 05:53:00,63.0,60.0,30.19,North,0,0.0,0.0,90,0.00,,,0.00,0.000000,,2013-06-23 09:53:00,
2013-06-23 06:02:00,62.0,59.0,30.20,North,0,0.0,0.0,91,0.00,,,0.00,4.000000,,2013-06-23 10:02:00,
2013-06-23 06:12:00,62.0,59.0,30.20,South,175,0.0,0.0,91,0.00,,,0.00,10.000000,,2013-06-23 10:12:00,
2013-06-23 06:22:00,62.0,59.0,30.20,South,175,0.0,0.0,91,0.00,,,0.00,10.000000,,2013-06-23 10:22:00,
2013-06-23 06:34:00,62.0,59.0,30.20,South,175,0.0,0.0,91,0.00,,,0.00,10.000000,,2013-06-23 10:34:00,
2013-06-23 06:43:00,65.0,62.0,30.20,North,0,0.0,0.0,91,0.00,,,0.00,80.000000,,2013-06-23 10:43:00,
2013-06-23 06:53:00,65.0,62.0,30.20,North,0,0.0,0.0,91,0.00,,,0.00,80.000000,,2013-06-23 10:53:00,
2013-06-23 07:02:00,65.0,62.0,30.20,North,0,0.0,0.0,91,0.00,,,0.00,80.000000,,2013-06-23 11:02:00,
2013-06-23 07:11:00,65.0,62.0,30.20,North,0,0.0,0.0,91,0.00,,,0.00,80.000000,,2013-06-23 11:11:00,
2013-06-23 07:22:00,70.0,66.0,30.21,SE,134,0.0,0.0,88,0.00,,,0.00,170.000000,,2013-06-23 11:22:00,
2013-06-23 07:33:00,71.0,65.0,30.21,SSE,147,1.0,1.0,82,0.00,,,0.00,209.000000,,2013-06-23 11:33:00,
2013-06-23 07:43:00,72.0,65.0,30.22,SE,135,1.0,2.0,80,0.00,,,0.00,215.000000,,2013-06-23 11:43:00,
2013-06-23 07:53:00,73.0,66.0,30.22,SSE,156,1.0,2.0,80,0.00,,,0.00,244.000000,,2013-06-23 11:53:00,
2013-06-23 08:01:00,73.0,66.0,30.21,SSE,155,2.0,2.0,79,0.00,,,0.00,221.000000,,2013-06-23 12:01:00,
2013-06-23 08:12:00,73.0,66.0,30.21,SSE,155,2.0,2.0,79,0.00,,,0.00,221.000000,,2013-06-23 12:12:00,
2013-06-23 08:22:00,73.0,66.0,30.21,SSE,155,2.0,2.0,79,0.00,,,0.00,221.000000,,2013-06-23 12:22:00,
2013-06-23 08:33:00,75.0,67.0,30.21,SSE,161,1.0,2.0,75,0.00,,,0.00,344.000000,,2013-06-23 12:33:00,
2013-06-23 08:53:00,76.0,67.0,30.22,SSE,167,0.0,2.0,73,0.00,,,0.00,465.000000,,2013-06-23 12:53:00,
2013-06-23 09:24:00,76.0,66.0,30.20,ESE,113,1.0,3.0,71,0.00,,,0.00,314.000000,,2013-06-23 13:24:00,
2013-06-23 09:34:00,76.0,66.0,30.20,ESE,113,1.0,3.0,71,0.00,,,0.00,314.000000,,2013-06-23 13:34:00,
2013-06-23 09:43:00,78.0,68.0,30.20,East,100,2.0,4.0,71,0.00,,,0.00,709.000000,,2013-06-23 13:43:00,
2013-06-23 09:53:00,79.0,68.0,30.20,West,261,0.0,2.0,68,0.00,,,0.00,379.000000,,2013-06-23 13:53:00,
2013-06-23 10:05:00,77.0,65.0,30.20,South,173,2.0,3.0,67,0.00,,,0.00,384.000000,,2013-06-23 14:05:00,
2013-06-23 10:11:00,77.0,66.0,30.20,SSE,149,2.0,3.0,68,0.00,,,0.00,410.000000,,2013-06-23 14:11:00,
2013-06-23 10:34:00,79.0,67.0,30.19,SE,138,2.0,4.0,66,0.00,,,0.00,435.000000,,2013-06-23 14:34:00,
2013-06-23 10:44:00,78.0,67.0,30.19,South,174,2.0,3.0,68,0.00,,,0.00,377.000000,,2013-06-23 14:44:00,
2013-06-23 10:52:00,79.0,67.0,30.19,SSE,153,2.0,5.0,67,0.00,,,0.00,774.000000,,2013-06-23 14:52:00,
2013-06-23 11:05:00,79.0,67.0,30.19,SSE,152,2.0,5.0,66,0.00,,,0.00,478.000000,,2013-06-23 15:05:00,
2013-06-23 11:12:00,79.0,67.0,30.19,South,181,2.0,6.0,66,0.00,,,0.00,467.000000,,2013-06-23 15:12:00,
2013-06-23 11:23:00,79.0,68.0,30.18,South,179,2.0,3.0,68,0.00,,,0.00,483.000000,,2013-06-23 15:23:00,
2013-06-23 11:35:00,79.0,68.0,30.18,South,175,3.0,6.0,68,0.00,,,0.00,510.000000,,2013-06-23 15:35:00,
2013-06-23 11:43:00,79.0,68.0,30.18,SSW,192,2.0,5.0,68,0.00,,,0.00,421.000000,,2013-06-23 15:43:00,
2013-06-23 11:52:00,78.0,67.0,30.18,SSW,204,2.0,3.0,68,0.00,,,0.00,344.000000,,2013-06-23 15:52:00,
2013-06-23 12:06:00,79.0,67.0,30.18,SSE,158,3.0,5.0,67,0.00,,,0.00,420.000000,,2013-06-23 16:06:00,
2013-06-23 12:12:00,79.0,66.0,30.18,South,179,3.0,5.0,65,0.00,,,0.00,654.000000,,2013-06-23 16:12:00,
2013-06-23 12:36:00,81.0,68.0,30.17,SE,144,3.0,5.0,65,0.00,,,0.00,912.000000,,2013-06-23 16:36:00,
2013-06-23 12:43:00,80.0,67.0,30.17,SE,130,3.0,6.0,64,0.00,,,0.00,565.000000,,2013-06-23 16:43:00,
2013-06-23 12:53:00,80.0,67.0,30.17,SE,130,3.0,6.0,64,0.00,,,0.00,565.000000,,2013-06-23 16:53:00,
2013-06-23 13:06:00,80.0,67.0,30.16,SE,131,2.0,4.0,64,0.00,,,0.00,422.000000,,2013-06-23 17:06:00,
2013-06-23 13:12:00,80.0,67.0,30.16,SE,131,2.0,4.0,64,0.00,,,0.00,422.000000,,2013-06-23 17:12:00,
2013-06-23 13:33:00,80.0,66.0,30.15,South,172,3.0,7.0,63,0.00,,,0.00,380.000000,,2013-06-23 17:33:00,
2013-06-23 13:43:00,80.0,67.0,30.16,South,182,2.0,4.0,65,0.00,,,0.00,351.000000,,2013-06-23 17:43:00,
2013-06-23 13:53:00,80.0,67.0,30.16,South,182,2.0,4.0,65,0.00,,,0.00,351.000000,,2013-06-23 17:53:00,
2013-06-23 14:01:00,82.0,67.0,30.14,South,174,2.0,4.0,60,0.00,,,0.00,693.000000,,2013-06-23 18:01:00,
2013-06-23 14:22:00,83.0,67.0,30.14,SE,145,4.0,6.0,59,0.00,,,0.00,1062.000000,,2013-06-23 18:22:00,
2013-06-23 14:34:00,82.0,66.0,30.14,SSE,154,4.0,7.0,59,0.00,,,0.00,1104.000000,,2013-06-23 18:34:00,
2013-06-23 14:43:00,82.0,67.0,30.13,South,169,2.0,4.0,60,0.00,,,0.00,337.000000,,2013-06-23 18:43:00,
2013-06-23 14:53:00,80.0,67.0,30.13,SSE,165,2.0,4.0,64,0.00,,,0.00,356.000000,,2013-06-23 18:53:00,
2013-06-23 15:01:00,81.0,67.0,30.12,SW,229,1.0,3.0,63,0.00,,,0.00,625.000000,,2013-06-23 19:01:00,
2013-06-23 15:11:00,80.0,66.0,30.12,WSW,253,3.0,5.0,62,0.00,,,0.00,493.000000,,2013-06-23 19:11:00,
2013-06-23 15:32:00,81.0,66.0,30.12,South,188,2.0,4.0,61,0.00,,,0.00,631.000000,,2013-06-23 19:32:00,
2013-06-23 15:43:00,81.0,67.0,30.11,WSW,246,2.0,4.0,62,0.00,,,0.00,504.000000,,2013-06-23 19:43:00,
2013-06-23 15:53:00,83.0,68.0,30.11,WSW,255,2.0,4.0,61,0.00,,,0.00,812.000000,,2013-06-23 19:53:00,
2013-06-23 16:02:00,83.0,67.0,30.11,SSE,165,1.0,3.0,59,0.00,,,0.00,740.000000,,2013-06-23 20:02:00,
2013-06-23 16:12:00,82.0,67.0,30.11,SSW,197,1.0,2.0,60,0.00,,,0.00,328.000000,,2013-06-23 20:12:00,
2013-06-23 16:24:00,82.0,68.0,30.11,South,176,1.0,3.0,63,0.00,,,0.00,251.000000,,2013-06-23 20:24:00,
2013-06-23 16:42:00,77.0,68.0,30.09,SSE,166,3.0,6.0,75,0.00,,,0.00,97.000000,,2013-06-23 20:42:00,
2013-06-23 16:53:00,75.0,68.0,30.10,South,173,5.0,7.0,80,0.02,,,0.02,108.000000,,2013-06-23 20:53:00,
2013-06-23 17:01:00,74.0,68.0,30.10,SSW,192,2.0,5.0,83,0.02,,,0.02,107.000000,,2013-06-23 21:01:00,
2013-06-23 17:22:00,74.0,68.0,30.10,SSE,156,3.0,5.0,83,0.02,,,0.02,204.000000,,2013-06-23 21:22:00,
2013-06-23 17:34:00,76.0,70.0,30.10,SSE,153,2.0,3.0,83,0.02,,,0.02,803.000000,,2013-06-23 21:34:00,
2013-06-23 17:44:00,77.0,69.0,30.09,SE,146,3.0,4.0,76,0.02,,,0.02,298.000000,,2013-06-23 21:44:00,
2013-06-23 17:52:00,77.0,69.0,30.08,South,175,1.0,3.0,77,0.00,,,0.02,530.000000,,2013-06-23 21:52:00,
2013-06-23 18:01:00,77.0,69.0,30.09,ESE,105,3.0,4.0,76,0.00,,,0.02,370.000000,,2013-06-23 22:01:00,
2013-06-23 18:32:00,78.0,69.0,30.08,South,181,2.0,3.0,74,0.00,,,0.02,418.000000,,2013-06-23 22:32:00,
2013-06-23 18:43:00,76.0,68.0,30.08,SW,227,2.0,3.0,76,0.00,,,0.02,63.000000,,2013-06-23 22:43:00,
2013-06-23 18:53:00,76.0,69.0,30.08,SW,217,1.0,2.0,79,0.00,,,0.02,46.000000,,2013-06-23 22:53:00,
2013-06-23 19:01:00,75.0,68.0,30.08,South,173,1.0,2.0,80,0.00,,,0.02,70.000000,,2013-06-23 23:01:00,
2013-06-23 19:12:00,76.0,69.0,30.08,SSE,161,2.0,3.0,80,0.00,,,0.02,229.000000,,2013-06-23 23:12:00,
2013-06-23 19:22:00,77.0,69.0,30.08,SSE,151,2.0,4.0,77,0.00,,,0.02,17.000000,,2013-06-23 23:22:00,
2013-06-23 19:33:00,76.0,69.0,30.08,South,178,2.0,3.0,79,0.00,,,0.02,56.000000,,2013-06-23 23:33:00,
2013-06-23 19:44:00,76.0,70.0,30.08,South,180,1.0,3.0,81,0.00,,,0.02,73.000000,,2013-06-23 23:44:00,
2013-06-23 19:52:00,76.0,70.0,30.09,South,171,1.0,2.0,81,0.00,,,0.02,76.000000,,2013-06-23 23:52:00,
2013-06-23 20:01:00,76.0,69.0,30.09,SSE,165,1.0,2.0,80,0.00,,,0.02,79.000000,,2013-06-24 00:01:00,
2013-06-23 20:33:00,75.0,69.0,30.10,South,173,1.0,2.0,81,0.00,,,0.02,18.000000,,2013-06-24 00:33:00,
2013-06-23 20:42:00,74.0,69.0,30.10,SSE,153,1.0,2.0,84,0.00,,,0.02,5.000000,,2013-06-24 00:42:00,
2013-06-23 20:52:00,73.0,68.0,30.10,South,172,0.0,1.0,84,0.00,,,0.02,2.000000,,2013-06-24 00:52:00,
2013-06-23 21:02:00,73.0,68.0,30.10,SSW,192,0.0,0.0,85,0.00,,,0.02,1.000000,,2013-06-24 01:02:00,
2013-06-23 21:11:00,73.0,69.0,30.10,North,0,0.0,0.0,86,0.00,,,0.02,0.000000,,2013-06-24 01:11:00,
2013-06-23 21:22:00,73.0,69.0,30.11,SSW,200,0.0,1.0,87,0.00,,,0.02,0.000000,,2013-06-24 01:22:00,
2013-06-23 21:32:00,72.0,68.0,30.11,SE,140,0.0,1.0,87,0.00,,,0.02,0.000000,,2013-06-24 01:32:00,
2013-06-23 21:42:00,72.0,68.0,30.11,North,0,0.0,0.0,87,0.00,,,0.02,0.000000,,2013-06-24 01:42:00,
2013-06-23 21:53:00,72.0,68.0,30.11,North,0,0.0,0.0,88,0.00,,,0.02,0.000000,,2013-06-24 01:53:00,
2013-06-23 22:02:00,72.0,68.0,30.12,North,0,0.0,0.0,88,0.00,,,0.02,0.000000,,2013-06-24 02:02:00,
2013-06-23 22:11:00,72.0,68.0,30.12,ESE,121,0.0,1.0,88,0.00,,,0.02,0.000000,,2013-06-24 02:11:00,
2013-06-23 22:42:00,72.0,69.0,30.13,WSW,241,0.0,0.0,89,0.00,,,0.02,0.000000,,2013-06-24 02:42:00,
2013-06-23 22:53:00,72.0,69.0,30.14,WSW,249,0.0,0.0,89,0.00,,,0.02,0.000000,,2013-06-24 02:53:00,
2013-06-23 23:01:00,72.0,69.0,30.13,SW,218,0.0,1.0,89,0.00,,,0.02,0.000000,,2013-06-24 03:01:00,
2013-06-23 23:11:00,71.0,68.0,30.14,NW,313,0.0,0.0,89,0.00,,,0.02,0.000000,,2013-06-24 03:11:00,
2013-06-23 23:22:00,72.0,69.0,30.13,SW,222,0.0,1.0,89,0.00,,,0.02,0.000000,,2013-06-24 03:22:00,
2013-06-23 23:33:00,72.0,69.0,30.13,South,182,0.0,1.0,89,0.00,,,0.02,0.000000,,2013-06-24 03:33:00,
2013-06-23 23:43:00,71.0,68.0,30.13,WSW,250,0.0,0.0,89,0.00,,,0.02,0.000000,,2013-06-24 03:43:00,
2013-06-23 23:53:00,72.0,69.0,30.13,SW,230,0.0,2.0,89,0.00,,,0.02,0.000000,,2013-06-24 03:53:00,